WEATHER DATA

TODAY
Time Temp. Dewp. Hum. Wind dir Wind speed Wind gust Bar. 1h Prec. 24h Prec.
00:16 10.3 7.5 83 156 0.8 1.4 1018.2 0.0000 0.0000
00:26 10.2 7.4 83 156 0.8 1.4 1018.2 0.0000 0.0000
00:37 9.9 7.2 83 156 0.8 1.4 1018.2 0.0000 0.0000
00:47 9.8 7.2 84 156 0.8 1.4 1018.1 0.0000 0.0000
00:57 9.7 7.1 84 156 0.8 1.4 1018 0.0000 0.0000
01:07 9.6 7 84 156 0.8 1.4 1018 0.0000 0.0000
01:17 9.6 7 84 156 0.8 1.4 1018 0.0000 0.0000
01:27 9.6 7.2 85 156 0.8 1.4 1018 0.0000 0.0000
01:37 9.5 6.9 84 156 0.8 1.4 1017.9 0.0000 0.0000
01:48 9.5 6.9 84 156 0.8 1.4 1017.9 0.0000 0.0000
01:58 9.3 6.7 84 156 0.8 1.4 1017.9 0.0000 0.0000
02:07 9.1 6.5 84 156 0.8 1.4 1017.9 0.0000 0.0000
02:23 8.9 6.5 85 156 0.8 1.4 1017.9 0.0000 0.0000
02:38 8.9 6.5 85 156 0.8 1.4 1017.9 0.0000 0.0000
02:48 9 6.6 85 156 0.8 1.4 1017.9 0.0000 0.0000
02:58 9.1 6.7 85 156 0.8 1.4 1017.8 0.0000 0.0000
03:08 9 6.6 85 156 0.8 1.4 1017.8 0.0000 0.0000
03:18 9.1 6.7 85 156 0.8 1.4 1017.9 0.0000 0.0000
03:28 9 6.4 84 156 0.8 1.4 1017.8 0.0000 0.0000
03:39 9.2 6.8 85 156 0.8 1.4 1017.7 0.0000 0.0000
03:48 9.2 6.6 84 156 0.8 1.4 1017.7 0.0000 0.0000
04:03 9.1 6.5 84 156 0.8 1.4 1017.7 0.0000 0.0000
04:14 9 6.4 84 156 0.8 1.4 1017.7 0.0000 0.0000
04:34 9 6.4 84 156 0.8 1.4 1017.6 0.0000 0.0000
04:44 8.9 6.3 84 156 0.8 1.4 1017.6 0.0000 0.0000
04:54 8.8 6.2 84 156 0.8 1.4 1017.6 0.0000 0.0000
05:04 8.8 6.2 84 156 0.8 1.4 1017.5 0.0000 0.0000
05:14 8.7 6.2 84 156 0.8 1.4 1017.5 0.0000 0.0000
05:35 8.8 6.2 84 156 0.8 1.4 1017.6 0.0000 0.0000
05:44 8.7 6.2 84 156 0.8 1.4 1017.6 0.0000 0.0000
05:54 8.9 6.5 85 156 0.8 1.4 1017.6 0.0000 0.0000
06:05 9.1 6.5 84 156 0.8 1.4 1017.6 0.0000 0.0000
06:15 9.1 6.5 84 156 0.8 1.4 1017.6 0.0000 0.0000
06:25 9.2 6.6 84 156 0.8 1.4 1017.6 0.0000 0.0000
06:35 9.1 6.5 84 156 0.8 1.4 1017.6 0.0000 0.0000
06:45 8.8 6.2 84 156 0.8 1.4 1017.7 0.0000 0.0000
06:55 8.8 6.2 84 156 0.8 1.4 1017.7 0.0000 0.0000
07:05 8.7 6.2 84 156 0.8 1.4 1017.7 0.0000 0.0000
07:26 8.7 6.3 85 156 0.8 1.4 1017.7 0.0000 0.0000
07:36 8.8 6.4 85 156 0.8 1.4 1017.7 0.0000 0.0000
07:46 8.8 6.4 85 156 0.8 1.4 1017.8 0.0000 0.0000
07:56 8.8 6.4 85 156 0.8 1.4 1017.9 0.0000 0.0000
08:06 8.8 6.2 84 156 0.8 1.4 1018 0.0000 0.0000
08:16 8.8 6.4 85 156 0.8 1.4 1018.1 0.0000 0.0000
08:27 8.9 6.5 85 156 0.8 1.4 1018.1 0.0000 0.0000
08:37 9.1 6.7 85 156 0.8 1.4 1018.2 0.0000 0.0000
08:46 9.3 6.9 85 156 0.8 1.4 1018.3 0.0000 0.0000
08:56 9.5 7.1 85 156 0.8 1.4 1018.3 0.0000 0.0000
09:07 9.9 7.5 85 156 0.8 1.4 1018.5 0.0000 0.0000
09:17 10.4 7.8 84 156 0.8 1.4 1018.5 0.0000 0.0000
09:27 11 8.4 84 156 0.8 1.4 1018.6 0.0000 0.0000
09:37 11.6 8.8 83 156 0.8 1.4 1018.6 0.0000 0.0000
09:47 12.3 9.3 82 156 0.8 1.4 1018.7 0.0000 0.0000
09:57 13.3 10.1 81 156 0.8 1.4 1018.7 0.0000 0.0000
10:07 14.1 10.3 78 156 0.8 1.4 1018.8 0.0000 0.0000
10:18 14.7 10.5 76 156 0.8 1.4 1018.8 0.0000 0.0000
10:28 15.4 10.8 74 156 0.8 1.4 1018.8 0.0000 0.0000
10:38 16.1 11.1 72 156 0.8 1.4 1018.9 0.0000 0.0000
10:48 16.8 11.3 70 156 0.8 1.4 1019 0.0000 0.0000
10:58 17.5 11.3 67 156 0.8 1.4 1019 0.0000 0.0000
11:08 18.3 11.6 65 156 0.8 1.4 1019.1 0.0000 0.0000
11:18 18.9 11.5 62 156 0.8 1.4 1019 0.0000 0.0000
11:29 19.2 11.5 61 156 0.8 1.4 1019.1 0.0000 0.0000
11:39 19.4 11.4 60 156 0.8 1.4 1019.1 0.0000 0.0000
11:48 19.7 11.5 59 156 0.8 1.4 1019 0.0000 0.0000
11:58 19.9 11.7 59 156 0.8 1.4 1019.1 0.0000 0.0000
12:09 20.2 11.7 58 156 0.8 1.4 1019 0.0000 0.0000
12:19 20.8 12 57 156 0.8 1.4 1019 0.0000 0.0000
12:29 21.1 12.3 57 156 0.8 1.4 1019 0.0000 0.0000
12:39 21.3 12.2 56 156 0.8 1.4 1019 0.0000 0.0000
12:49 20.7 11.9 57 156 0.8 1.4 1018.9 0.0000 0.0000
12:59 21.4 12.5 57 156 0.8 1.4 1018.7 0.0000 0.0000
13:09 21.6 12.2 55 156 0.8 1.4 1018.7 0.0000 0.0000
13:20 21.8 12.4 55 156 0.8 1.4 1018.6 0.0000 0.0000
13:30 22.2 12.2 53 156 0.8 1.4 1018.6 0.0000 0.0000
13:39 22.3 12.3 53 156 0.8 1.4 1018.5 0.0000 0.0000
13:50 22 12 53 156 0.8 1.4 1018.5 0.0000 0.0000
14:00 21.9 12.2 54 156 0.8 1.4 1018.2 0.0000 0.0000
14:10 22 11.7 52 156 0.8 1.4 1018.1 0.0000 0.0000
14:20 22.3 12 52 156 0.8 1.4 1018.1 0.0000 0.0000
14:31 22.8 12.1 51 156 0.8 1.4 1018.1 0.0000 0.0000
14:40 23.1 12.1 50 156 0.8 1.4 1018 0.0000 0.0000
14:50 22.8 12.1 51 156 0.8 1.4 1018 0.0000 0.0000
15:00 22.9 12.2 51 156 0.8 1.4 1018 0.0000 0.0000
15:11 23.2 12.2 50 156 0.8 1.4 1018.1 0.0000 0.0000
15:21 23.1 12.1 50 156 0.8 1.4 1018.1 0.0000 0.0000
15:31 22.9 12.2 51 156 0.8 1.4 1018 0.0000 0.0000
15:41 22.8 12.4 52 156 0.8 1.4 1018.1 0.0000 0.0000
15:51 22.8 12.1 51 156 0.8 1.4 1018 0.0000 0.0000
16:01 22.8 12.1 51 156 0.8 1.4 1018.1 0.0000 0.0000
16:11 23 12.6 52 156 0.8 1.4 1018 0.0000 0.0000
16:22 22.8 12.1 51 156 0.8 1.4 1018 0.0000 0.0000
16:31 23 12.3 51 156 0.8 1.4 1018 0.0000 0.0000
16:41 22.7 12.1 51 156 0.8 1.4 1017.9 0.0000 0.0000
16:52 22.4 12.1 52 156 0.8 1.4 1018 0.0000 0.0000
17:02 21.6 11.6 53 156 0.8 1.4 1017.9 0.0000 0.0000
17:12 20.2 11.2 56 156 0.8 1.4 1018 0.0000 0.0000
17:22 19.3 10.8 58 156 0.8 1.4 1018 0.0000 0.0000
17:33 18.6 10.9 61 156 0.8 1.4 1017.9 0.0000 0.0000
17:42 18.6 10.9 61 156 0.8 1.4 1017.9 0.0000 0.0000
17:52 18 10.6 62 156 0.8 1.4 1017.9 0.0000 0.0000
18:02 17.2 10.3 64 156 0.8 1.4 1018 0.0000 0.0000
18:13 16.4 10 66 156 0.8 1.4 1018 0.0000 0.0000

DAY STATISTIC

2018-10-18
TEMPERATURE
AVERAGE
14.7
HIGH
23.2
15:11
LOW
8.7
05:14
PRESSURE
AVERAGE
1018.2
HIGH
1019.1
11:08
LOW
1017.5
05:04
DEWPOINT
AVERAGE
9.1
HIGH
12.6
16:11
LOW
6.2
04:54
HUMIDITY
AVERAGE
72
HIGH
85
01:27
LOW
50
14:40
WIND SPEED
AVERAGE
0.8
HIGH
0.8
00:16
WIND GUST
AVERAGE
1.4
HIGH
1.4
00:16
WIND DIRECTION
PREVAILING
SE
100%
N
0.0
NE
0.0
E
0.0
SE
100.0
S
0.0
SW
0.0
W
0.0
NW
0.0
PRECIPITATION
RAIN HOUR
0.0
RAIN DAY
0.0
TEMPERATURE (°C)
LOW
8.7
HIGH
23.2
AVERAGE
14.7
PRESSURE (hpa)
LOW
1017.5
HIGH
1019.1
AVERAGE
1018.2
DEVICE